createdAt,value
2024-03-26T00:02:58.478Z,47.58389261744966
2024-03-26T00:06:45.448Z,48.41610738255034
2024-03-26T00:10:05.744Z,42.8255033557047
2024-03-26T00:13:26.435Z,44.57046979865772
2024-03-26T00:21:30.449Z,37.20134228187919
2024-03-26T00:24:50.703Z,47.09395973154363
2024-03-26T00:28:11.068Z,39.328859060402685
2024-03-26T00:31:31.226Z,47.577181208053695
2024-03-26T00:34:50.924Z,47.53691275167785
2024-03-26T00:38:10.959Z,50.88590604026846
2024-03-26T00:43:28.889Z,47.58389261744966
2024-03-26T00:46:48.333Z,42.79194630872483
2024-03-26T00:51:15.665Z,47.86577181208054
2024-03-26T00:54:36.023Z,37.95973154362416
2024-03-26T00:57:55.995Z,39.671140939597315
2024-03-26T01:01:15.969Z,37.63758389261745
2024-03-26T01:04:36.210Z,35.644295302013425
2024-03-26T01:15:10.494Z,38.348993288590606
2024-03-26T01:18:30.637Z,38.671140939597315
2024-03-26T01:29:01.869Z,40.12080536912752
2024-03-26T01:32:21.804Z,42.22818791946309
2024-03-26T01:37:35.155Z,39.36241610738255
2024-03-26T01:40:55.237Z,35.67785234899329
2024-03-26T01:44:15.480Z,39.785234899328856
2024-03-26T01:47:35.602Z,40.29530201342282
2024-03-26T01:50:55.427Z,40.0
2024-03-26T01:54:15.507Z,31.906040268456376
2024-03-26T01:57:36.141Z,41.8255033557047
2024-03-26T02:00:56.424Z,40.04026845637584
2024-03-26T02:04:16.168Z,50.422818791946305
2024-03-26T02:07:36.100Z,36.68456375838926
2024-03-26T02:10:56.199Z,38.013422818791945
2024-03-26T02:14:15.851Z,42.83892617449664
2024-03-26T02:18:42.432Z,39.51677852348993
2024-03-26T02:22:02.710Z,35.20134228187919
2024-03-26T02:25:22.347Z,42.624161073825505
2024-03-26T02:28:42.423Z,38.80536912751678
2024-03-26T02:32:01.859Z,31.328859060402685
2024-03-26T02:35:21.737Z,43.369127516778526
2024-03-26T02:38:42.092Z,42.09395973154363
2024-03-26T02:44:06.393Z,41.59731543624161
2024-03-26T02:47:26.425Z,45.899328859060404
2024-03-26T02:50:46.435Z,41.61073825503356
2024-03-26T02:54:06.053Z,47.946308724832214
2024-03-26T02:57:26.418Z,42.442953020134226
2024-03-26T03:00:47.006Z,42.644295302013425
2024-03-26T03:04:07.191Z,53.0
2024-03-26T03:07:26.905Z,44.56375838926174
2024-03-26T03:10:46.682Z,42.42953020134228
2024-03-26T03:16:40.758Z,51.53020134228188
2024-03-26T03:22:42.216Z,48.0
2024-03-26T03:26:02.045Z,55.14093959731544
2024-03-26T03:29:21.826Z,69.28187919463087
2024-03-26T03:32:42.376Z,52.51006711409396
2024-03-26T03:36:02.256Z,63.40268456375839
2024-03-26T03:39:22.347Z,62.61744966442953
2024-03-26T03:45:03.587Z,68.83892617449665
2024-03-26T03:50:55.599Z,71.01342281879195
2024-03-26T03:54:15.388Z,69.3489932885906
2024-03-26T03:57:35.225Z,61.74496644295302
2024-03-26T04:00:55.115Z,64.31543624161074
2024-03-26T04:04:15.262Z,61.31543624161074
2024-03-26T04:07:35.833Z,73.45637583892618
2024-03-26T04:10:56.198Z,68.54362416107382
2024-03-26T04:14:16.668Z,72.42281879194631
2024-03-26T04:30:29.892Z,65.28187919463087
2024-03-26T04:33:49.715Z,65.1006711409396
2024-03-26T04:37:09.275Z,56.09395973154363
2024-03-26T04:45:28.878Z,56.2751677852349
2024-03-26T04:48:48.926Z,48.25503355704698
2024-03-26T04:52:08.588Z,54.02013422818792
2024-03-26T04:55:28.650Z,46.61744966442953
2024-03-26T04:58:49.000Z,48.577181208053695
2024-03-26T05:02:09.190Z,53.70469798657718
2024-03-26T05:05:29.640Z,54.59731543624161
2024-03-26T05:08:49.649Z,41.16107382550336
2024-03-26T05:12:08.733Z,47.53020134228188
2024-03-26T05:15:29.632Z,44.76510067114094
2024-03-26T05:18:49.593Z,44.54362416107382
2024-03-26T05:22:10.079Z,44.375838926174495
2024-03-26T05:27:21.893Z,39.671140939597315
2024-03-26T05:30:42.161Z,39.89261744966443
2024-03-26T05:34:03.520Z,44.70469798657718
2024-03-26T05:39:45.552Z,51.261744966442954
2024-03-26T05:47:48.277Z,34.92617449664429
2024-03-26T05:51:07.505Z,43.422818791946305
2024-03-26T05:54:27.237Z,33.22147651006711
2024-03-26T05:57:47.214Z,33.16778523489933
2024-03-26T06:01:07.164Z,36.83221476510067
2024-03-26T06:04:27.449Z,43.48993288590604
2024-03-26T06:07:47.385Z,46.90604026845637
2024-03-26T06:11:07.547Z,35.90604026845637
2024-03-26T06:14:28.353Z,35.87919463087248
2024-03-26T06:17:48.314Z,43.91275167785235
2024-03-26T06:22:28.310Z,47.630872483221474
2024-03-26T06:25:48.277Z,42.86577181208054
2024-03-26T06:29:08.209Z,42.577181208053695
2024-03-26T06:36:43.599Z,47.4496644295302
2024-03-26T06:42:57.939Z,41.04697986577181
2024-03-26T06:48:59.068Z,49.308724832214764
2024-03-26T06:52:20.608Z,39.261744966442954
2024-03-26T06:56:25.577Z,44.348993288590606
2024-03-26T06:59:45.824Z,38.80536912751678
2024-03-26T07:03:05.778Z,49.241610738255034
2024-03-26T07:06:26.242Z,38.0
2024-03-26T07:09:47.295Z,32.100671140939596
2024-03-26T07:13:06.629Z,36.19463087248322
2024-03-26T07:16:41.569Z,40.86577181208054
2024-03-26T07:28:34.899Z,45.328859060402685
2024-03-26T07:52:21.906Z,41.02013422818792
2024-03-26T07:55:42.082Z,34.02684563758389
2024-03-26T08:02:18.399Z,36.33557046979866
2024-03-26T08:07:45.603Z,32.53691275167785
2024-03-26T08:11:05.234Z,27.221476510067113
2024-03-26T08:16:43.947Z,30.80536912751678
2024-03-26T08:20:03.699Z,38.07382550335571
2024-03-26T08:23:23.840Z,23.026845637583893
2024-03-26T08:26:43.927Z,26.51006711409396
2024-03-26T08:30:05.446Z,33.20805369127517
2024-03-26T08:33:25.966Z,34.16778523489933
2024-03-26T08:36:45.758Z,22.12751677852349
2024-03-26T08:40:06.147Z,27.651006711409394
2024-03-26T08:43:26.182Z,28.825503355704697
2024-03-26T08:46:46.475Z,23.845637583892618
2024-03-26T08:50:06.827Z,27.154362416107382
2024-03-26T08:53:27.504Z,27.026845637583893
2024-03-26T08:56:47.483Z,25.06040268456376
2024-03-26T09:00:07.112Z,21.59731543624161
2024-03-26T09:03:26.493Z,25.261744966442954
2024-03-26T09:06:46.029Z,30.08053691275168
2024-03-26T09:12:09.807Z,25.97986577181208
2024-03-26T09:15:30.169Z,28.25503355704698
2024-03-26T09:18:50.147Z,28.42953020134228
2024-03-26T09:22:09.917Z,27.23489932885906
2024-03-26T09:27:40.852Z,27.36241610738255
2024-03-26T09:31:00.822Z,28.731543624161073
2024-03-26T09:37:47.680Z,28.691275167785236
2024-03-26T09:41:07.961Z,27.328859060402685
2024-03-26T09:44:27.644Z,32.70469798657718
2024-03-26T09:47:47.559Z,27.13422818791946
2024-03-26T09:51:07.314Z,31.181208053691275
2024-03-26T09:54:27.290Z,26.859060402684563
2024-03-26T09:59:45.106Z,25.80536912751678
2024-03-26T10:03:04.998Z,32.54362416107382
2024-03-26T10:06:25.368Z,25.583892617449663
2024-03-26T10:09:45.813Z,28.375838926174495
2024-03-26T10:15:51.354Z,29.57718120805369
2024-03-26T10:19:10.685Z,25.516778523489933
2024-03-26T10:22:30.688Z,28.06040268456376
2024-03-26T10:25:49.913Z,26.86577181208054
2024-03-26T10:29:10.909Z,26.838926174496645
2024-03-26T10:32:32.649Z,26.114093959731544
2024-03-26T10:35:52.444Z,23.892617449664428
2024-03-26T10:39:12.157Z,26.16778523489933
2024-03-26T10:46:17.143Z,24.13422818791946
2024-03-26T11:02:10.475Z,25.624161073825505
2024-03-26T11:05:30.700Z,27.20805369127517
2024-03-26T11:09:46.643Z,22.40268456375839
2024-03-26T11:13:05.971Z,24.85234899328859
2024-03-26T11:17:25.472Z,23.93288590604027
2024-03-26T11:22:51.741Z,25.966442953020135
2024-03-26T11:28:09.274Z,26.120805369127517
2024-03-26T11:31:29.874Z,26.71812080536913
2024-03-26T11:34:49.941Z,31.026845637583893
2024-03-26T11:38:18.864Z,37.946308724832214
2024-03-26T11:41:39.192Z,44.04026845637584
2024-03-26T11:44:59.750Z,40.59060402684564
2024-03-26T11:48:19.695Z,33.0
2024-03-26T11:51:42.155Z,36.711409395973156
2024-03-26T11:55:03.406Z,36.29530201342282
2024-03-26T11:58:23.480Z,34.87248322147651
2024-03-26T12:01:43.634Z,37.006711409395976
2024-03-26T12:05:03.482Z,40.852348993288594
2024-03-26T12:08:23.835Z,42.83892617449664
2024-03-26T12:13:10.812Z,33.50335570469799
2024-03-26T12:16:34.316Z,36.644295302013425
2024-03-26T12:30:28.233Z,43.95302013422819
2024-03-26T12:33:48.032Z,44.013422818791945
2024-03-26T12:37:07.949Z,44.4496644295302
2024-03-26T12:40:28.953Z,40.91275167785235
2024-03-26T12:43:48.790Z,43.422818791946305
2024-03-26T12:47:08.647Z,35.919463087248324
2024-03-26T12:50:28.910Z,44.11409395973154
2024-03-26T12:53:48.872Z,37.59060402684564
2024-03-26T12:57:08.076Z,37.67785234899329
2024-03-26T13:00:27.765Z,42.50335570469799
2024-03-26T13:03:47.422Z,38.19463087248322
2024-03-26T13:07:07.275Z,38.95973154362416
2024-03-26T13:10:27.976Z,35.69798657718121
2024-03-26T13:13:50.037Z,37.65771812080537
2024-03-26T13:17:11.056Z,37.1744966442953
2024-03-26T13:20:31.197Z,35.02013422818792
2024-03-26T13:23:51.304Z,34.288590604026844
2024-03-26T13:27:11.562Z,37.711409395973156
2024-03-26T13:30:37.982Z,36.04697986577181
2024-03-26T13:36:18.066Z,39.12751677852349
2024-03-26T13:39:37.958Z,34.16778523489933
2024-03-26T13:42:58.341Z,36.147651006711406
2024-03-26T13:46:18.305Z,32.43624161073826
2024-03-26T13:49:38.683Z,38.84563758389262
2024-03-26T13:53:51.590Z,33.013422818791945
2024-03-26T13:57:12.213Z,37.15436241610738
2024-03-26T14:00:32.704Z,38.83221476510067
2024-03-26T14:03:52.944Z,34.29530201342282
2024-03-26T14:07:12.937Z,34.18791946308725
2024-03-26T14:10:33.008Z,31.053691275167786
2024-03-26T14:13:53.876Z,36.8255033557047
2024-03-26T14:17:13.647Z,52.93288590604027
2024-03-26T14:20:33.118Z,130.1476510067114
2024-03-26T14:23:53.232Z,75.33557046979865
2024-03-26T14:28:38.667Z,44.48993288590604
2024-03-26T14:31:58.613Z,40.604026845637584
2024-03-26T14:35:18.573Z,36.013422818791945
2024-03-26T14:38:38.953Z,43.51677852348993
2024-03-26T14:42:15.681Z,31.416107382550337
2024-03-26T14:47:41.105Z,41.29530201342282
2024-03-26T14:51:01.080Z,44.38255033557047
2024-03-26T14:54:20.935Z,41.47651006711409
2024-03-26T14:57:42.010Z,39.939597315436245
2024-03-26T15:01:01.580Z,40.22818791946309
2024-03-26T15:04:21.257Z,51.06711409395973
2024-03-26T15:07:41.195Z,45.49664429530201
2024-03-26T15:11:01.335Z,50.26845637583892
2024-03-26T15:14:21.623Z,44.47651006711409
2024-03-26T15:17:41.394Z,44.63758389261745
2024-03-26T15:21:00.954Z,46.48322147651007
2024-03-26T15:24:20.889Z,43.13422818791946
2024-03-26T15:27:41.031Z,40.644295302013425
2024-03-26T15:31:00.705Z,36.671140939597315
2024-03-26T15:34:21.176Z,44.38926174496644
2024-03-26T15:37:41.665Z,52.644295302013425
2024-03-26T15:41:02.039Z,47.939597315436245
2024-03-26T15:44:21.456Z,44.18120805369127
2024-03-26T15:47:53.178Z,56.328859060402685
2024-03-26T15:51:13.271Z,41.23489932885906
2024-03-26T15:54:33.028Z,56.92617449664429
2024-03-26T16:08:31.548Z,51.84563758389262
2024-03-26T16:11:51.490Z,56.04026845637584
2024-03-26T16:15:10.971Z,70.87919463087249
2024-03-26T16:18:33.106Z,64.63758389261746
2024-03-26T16:21:52.855Z,56.85906040268456
2024-03-26T16:25:12.931Z,59.758389261744966
2024-03-26T16:28:33.054Z,64.57046979865771
2024-03-26T16:48:54.515Z,65.2751677852349
2024-03-26T16:52:15.000Z,68.14765100671141
2024-03-26T16:59:42.395Z,68.01342281879195
2024-03-26T17:03:02.236Z,69.84563758389261
2024-03-26T17:06:22.227Z,74.98657718120805
2024-03-26T17:09:42.563Z,82.1006711409396
2024-03-26T17:13:02.525Z,87.14765100671141
2024-03-26T17:19:21.381Z,85.06040268456375
2024-03-26T17:22:41.150Z,87.76510067114094
2024-03-26T17:26:01.195Z,90.32885906040268
2024-03-26T17:30:22.161Z,94.24832214765101
2024-03-26T17:33:43.345Z,91.98657718120805
2024-03-26T17:37:03.621Z,97.68456375838926
2024-03-26T17:40:23.270Z,94.81208053691275
2024-03-26T17:45:07.556Z,101.94630872483222
2024-03-26T17:49:56.950Z,90.85906040268456
2024-03-26T17:59:34.647Z,87.68456375838926
2024-03-26T18:03:04.265Z,97.16778523489933
2024-03-26T18:06:36.274Z,100.31543624161074
2024-03-26T18:10:05.084Z,93.25503355704699
2024-03-26T18:14:26.483Z,104.1744966442953
2024-03-26T18:17:47.028Z,107.0738255033557
2024-03-26T18:21:07.100Z,88.55704697986577
2024-03-26T18:24:27.572Z,101.11409395973155
2024-03-26T18:29:03.689Z,90.05369127516778
2024-03-26T18:32:29.551Z,96.83892617449665
2024-03-26T18:35:56.179Z,98.21476510067114
2024-03-26T18:39:16.462Z,92.78523489932886
2024-03-26T18:42:37.235Z,109.19463087248322
2024-03-26T18:45:58.015Z,98.24161073825503
2024-03-26T18:49:18.189Z,110.95973154362416
2024-03-26T18:56:55.216Z,104.03355704697987
2024-03-26T19:08:46.765Z,105.08053691275168
2024-03-26T19:12:06.802Z,117.61073825503355
2024-03-26T19:15:27.677Z,117.84563758389261
2024-03-26T19:18:48.379Z,175.05369127516778
2024-03-26T19:22:08.407Z,154.95973154362417
2024-03-26T19:25:45.202Z,137.91275167785236
2024-03-26T19:29:05.229Z,126.63758389261746
2024-03-26T19:32:26.390Z,128.248322147651
2024-03-26T19:35:47.195Z,122.04697986577182
2024-03-26T19:39:07.573Z,124.87248322147651
2024-03-26T19:42:28.118Z,112.09395973154362
2024-03-26T19:45:48.608Z,129.78523489932886
2024-03-26T19:58:54.752Z,128.36241610738256
2024-03-26T20:02:14.684Z,118.64429530201342
2024-03-26T20:06:04.851Z,124.94630872483222
2024-03-26T20:09:25.390Z,129.4765100671141
2024-03-26T20:12:45.282Z,131.89261744966444
2024-03-26T20:16:55.908Z,121.08724832214764
2024-03-26T20:20:15.768Z,134.83221476510067
2024-03-26T20:23:36.548Z,132.20805369127515
2024-03-26T20:26:56.380Z,137.8255033557047
2024-03-26T20:30:17.100Z,134.48322147651007
2024-03-26T20:33:55.661Z,148.39597315436242
2024-03-26T20:37:15.820Z,139.93288590604027
2024-03-26T20:40:37.020Z,143.73825503355704
2024-03-26T20:43:56.438Z,147.61073825503357
2024-03-26T20:47:16.516Z,141.43624161073825
2024-03-26T20:50:37.542Z,148.95973154362417
2024-03-26T20:53:57.160Z,145.9731543624161
2024-03-26T20:57:17.139Z,147.26174496644296
2024-03-26T21:00:37.291Z,136.11409395973155
2024-03-26T21:03:57.268Z,151.71140939597316
2024-03-26T21:07:17.434Z,145.79194630872485
2024-03-26T21:10:38.528Z,157.4295302013423
2024-03-26T21:13:59.047Z,150.51677852348993
2024-03-26T21:17:57.424Z,146.3758389261745
2024-03-26T21:21:17.413Z,156.24161073825502
2024-03-26T21:24:38.470Z,169.08053691275168
2024-03-26T21:28:03.717Z,152.0738255033557
2024-03-26T21:31:58.501Z,166.63758389261744
2024-03-26T21:35:19.991Z,155.9731543624161
2024-03-26T21:38:40.570Z,161.3489932885906
2024-03-26T21:43:15.134Z,144.8255033557047
2024-03-26T21:47:17.067Z,145.23489932885906
2024-03-26T21:51:59.602Z,147.1476510067114
2024-03-26T21:55:20.860Z,146.68456375838926
2024-03-26T21:58:41.361Z,154.83892617449663
2024-03-26T22:02:01.811Z,151.1006711409396
2024-03-26T22:05:21.900Z,149.53020134228188
2024-03-26T22:08:42.660Z,162.0738255033557
2024-03-26T22:12:03.166Z,171.00671140939596
2024-03-26T22:15:24.428Z,165.38255033557047
2024-03-26T22:19:45.167Z,151.74496644295303
2024-03-26T22:23:05.043Z,139.16107382550337
2024-03-26T22:26:24.530Z,175.48322147651007
2024-03-26T22:29:50.905Z,161.08053691275168
2024-03-26T22:33:11.000Z,164.81879194630872
2024-03-26T22:41:53.778Z,154.751677852349
2024-03-26T22:45:13.655Z,166.3758389261745
2024-03-26T22:48:34.088Z,164.56375838926175
2024-03-26T22:51:54.625Z,159.35570469798657
2024-03-26T22:55:15.078Z,159.54362416107384
2024-03-26T23:09:58.600Z,161.61073825503357
2024-03-26T23:13:18.546Z,172.84563758389262
2024-03-26T23:18:26.943Z,174.08724832214764
2024-03-26T23:22:04.860Z,160.25503355704697
2024-03-26T23:26:39.972Z,162.248322147651
2024-03-26T23:30:00.140Z,155.33557046979865
2024-03-26T23:33:19.903Z,151.78523489932886
2024-03-26T23:36:40.254Z,148.44295302013424
2024-03-26T23:40:00.205Z,146.4295302013423
2024-03-26T23:43:20.567Z,153.63087248322148
2024-03-26T23:46:41.170Z,153.34228187919464
2024-03-26T23:50:01.271Z,148.2751677852349
2024-03-26T23:53:20.577Z,149.60402684563758
2024-03-26T23:56:40.348Z,163.13422818791946
